地図

経路データ

SID SEASON NUMBER BASIN SUBBASIN NAME ISO_TIME NATURE LAT LON WMO_WIND WMO_PRES WMO_AGENCY TRACK_TYPE DIST2LAND LANDFALL IFLAG USA_AGENCY USA_ATCF_ID USA_LAT USA_LON USA_RECORD USA_STATUS USA_WIND USA_PRES USA_SSHS USA_R34_NE USA_R34_SE USA_R34_SW USA_R34_NW USA_R50_NE USA_R50_SE USA_R50_SW USA_R50_NW USA_R64_NE USA_R64_SE USA_R64_SW USA_R64_NW USA_POCI USA_ROCI USA_RMW USA_EYE TOKYO_LAT TOKYO_LON TOKYO_GRADE TOKYO_WIND TOKYO_PRES TOKYO_R50_DIR TOKYO_R50_LONG TOKYO_R50_SHORT TOKYO_R30_DIR TOKYO_R30_LONG TOKYO_R30_SHORT TOKYO_LAND CMA_LAT CMA_LON CMA_CAT CMA_WIND CMA_PRES HKO_LAT HKO_LON HKO_CAT HKO_WIND HKO_PRES NEWDELHI_LAT NEWDELHI_LON NEWDELHI_GRADE NEWDELHI_WIND NEWDELHI_PRES NEWDELHI_CI NEWDELHI_DP NEWDELHI_POCI REUNION_LAT REUNION_LON REUNION_TYPE REUNION_WIND REUNION_PRES REUNION_TNUM REUNION_CI REUNION_RMW REUNION_R34_NE REUNION_R34_SE REUNION_R34_SW REUNION_R34_NW REUNION_R50_NE REUNION_R50_SE REUNION_R50_SW REUNION_R50_NW REUNION_R64_NE REUNION_R64_SE REUNION_R64_SW REUNION_R64_NW BOM_LAT BOM_LON BOM_TYPE BOM_WIND BOM_PRES BOM_TNUM BOM_CI BOM_RMW BOM_R34_NE BOM_R34_SE BOM_R34_SW BOM_R34_NW BOM_R50_NE BOM_R50_SE BOM_R50_SW BOM_R50_NW BOM_R64_NE BOM_R64_SE BOM_R64_SW BOM_R64_NW BOM_ROCI BOM_POCI BOM_EYE BOM_POS_METHOD BOM_PRES_METHOD NADI_LAT NADI_LON NADI_CAT NADI_WIND NADI_PRES WELLINGTON_LAT WELLINGTON_LON WELLINGTON_WIND WELLINGTON_PRES DS824_LAT DS824_LON DS824_STAGE DS824_WIND DS824_PRES TD9636_LAT TD9636_LON TD9636_STAGE TD9636_WIND TD9636_PRES TD9635_LAT TD9635_LON TD9635_WIND TD9635_PRES TD9635_ROCI NEUMANN_LAT NEUMANN_LON NEUMANN_CLASS NEUMANN_WIND NEUMANN_PRES MLC_LAT MLC_LON MLC_CLASS MLC_WIND MLC_PRES USA_GUST BOM_GUST BOM_GUST_PER REUNION_GUST REUNION_GUST_PER USA_SEAHGT USA_SEARAD_NE USA_SEARAD_SE USA_SEARAD_SW USA_SEARAD_NW STORM_SPEED STORM_DIR
1877297N25266 1877 33 NA GM NOT_NAMED 1877-10-24 00:00:00 TS 24.5000 -94.1000 40 hurdat_atl main 335 318 O_____________ hurdat_atl AL071877 24.5000 -94.1000 TS 40 0 10 0
1877297N25266 1877 33 NA GM NOT_NAMED 1877-10-24 03:00:00 TS 24.9900 -94.1074 main 318 305 P_____________ AL071877 24.9900 -94.1074 TS 40 0 10 1
1877297N25266 1877 33 NA GM NOT_NAMED 1877-10-24 06:00:00 TS 25.5000 -94.1000 40 hurdat_atl main 305 299 O_____________ hurdat_atl AL071877 25.5000 -94.1000 TS 40 0 10 2
1877297N25266 1877 33 NA GM NOT_NAMED 1877-10-24 09:00:00 TS 26.0300 -94.0650 main 299 299 P_____________ AL071877 26.0300 -94.0650 TS 40 0 10 5
1877297N25266 1877 33 NA GM NOT_NAMED 1877-10-24 12:00:00 TS 26.5000 -94.0000 40 hurdat_atl main 301 276 O_____________ hurdat_atl AL071877 26.5000 -94.0000 TS 40 0 8 9
1877297N25266 1877 33 NA GM NOT_NAMED 1877-10-24 15:00:00 TS 26.8450 -93.9224 main 276 252 P_____________ AL071877 26.8450 -93.9224 TS 40 0 6 16
1877297N25266 1877 33 NA GM NOT_NAMED 1877-10-24 18:00:00 TS 27.1000 -93.8000 40 hurdat_atl main 252 240 O_____________ hurdat_atl AL071877 27.1000 -93.8000 TS 40 0 5 29
1877297N25266 1877 33 NA GM NOT_NAMED 1877-10-24 21:00:00 TS 27.3224 -93.6299 main 246 236 P_____________ AL071877 27.3224 -93.6299 TS 40 0 5 42
1877297N25266 1877 33 NA GM NOT_NAMED 1877-10-25 00:00:00 TS 27.5000 -93.4000 40 hurdat_atl main 243 215 O_____________ hurdat_atl AL071877 27.5000 -93.4000 TS 40 0 6 54
1877297N25266 1877 33 NA GM NOT_NAMED 1877-10-25 03:00:00 TS 27.6651 -93.1075 main 215 195 P_____________ AL071877 27.6651 -93.1075 TS 40 0 6 60
1877297N25266 1877 33 NA GM NOT_NAMED 1877-10-25 06:00:00 TS 27.8000 -92.8000 40 hurdat_atl main 195 180 O_____________ hurdat_atl AL071877 27.8000 -92.8000 TS 40 0 5 63
1877297N25266 1877 33 NA GM NOT_NAMED 1877-10-25 09:00:00 TS 27.8995 -92.5946 main 180 167 P_____________ AL071877 27.8995 -92.5946 TS 40 0 5 66
1877297N25266 1877 33 NA GM NOT_NAMED 1877-10-25 12:00:00 TS 28.0000 -92.3000 40 hurdat_atl main 167 140 O_____________ hurdat_atl AL071877 28.0000 -92.3000 TS 40 0 8 71
1877297N25266 1877 33 NA GM NOT_NAMED 1877-10-25 15:00:00 TS 28.1580 -91.7379 main 126 91 P_____________ AL071877 28.1580 -91.7379 TS 40 0 11 74
1877297N25266 1877 33 NA GM NOT_NAMED 1877-10-25 18:00:00 TS 28.3000 -91.1000 40 hurdat_atl main 91 78 O_____________ hurdat_atl AL071877 28.3000 -91.1000 TS 40 0 10 78
1877297N25266 1877 33 NA GM NOT_NAMED 1877-10-25 21:00:00 TS 28.3645 -90.5997 main 78 78 P_____________ AL071877 28.3645 -90.5997 TS 40 0 9 84
1877297N25266 1877 33 NA GM NOT_NAMED 1877-10-26 00:00:00 TS 28.4000 -90.1000 40 hurdat_atl main 78 78 O_____________ hurdat_atl AL071877 28.4000 -90.1000 TS 40 0 9 85
1877297N25266 1877 33 NA GM NOT_NAMED 1877-10-26 03:00:00 TS 28.4422 -89.5298 main 77 55 P_____________ AL071877 28.4422 -89.5298 TS 40 0 11 85
1877297N25266 1877 33 NA GM NOT_NAMED 1877-10-26 06:00:00 TS 28.5000 -88.9000 40 hurdat_atl main 59 59 O_____________ hurdat_atl AL071877 28.5000 -88.9000 TS 40 0 11 83
1877297N25266 1877 33 NA GM NOT_NAMED 1877-10-26 09:00:00 TS 28.5831 -88.3044 main 88 88 P_____________ AL071877 28.5831 -88.3044 TS 40 0 12 81
1877297N25266 1877 33 NA GM NOT_NAMED 1877-10-26 12:00:00 TS 28.7000 -87.5000 40 hurdat_atl main 152 139 O_____________ hurdat_atl AL071877 28.7000 -87.5000 TS 40 0 17 82
1877297N25266 1877 33 NA GM NOT_NAMED 1877-10-26 15:00:00 TS 28.8117 -86.3625 main 139 78 P_____________ AL071877 28.8117 -86.3625 TS 40 0 23 82
1877297N25266 1877 33 NA GM NOT_NAMED 1877-10-26 18:00:00 TS 29.0000 -84.9000 40 hurdat_atl main 78 14 O_____________ hurdat_atl AL071877 29.0000 -84.9000 TS 40 0 28 80
1877297N25266 1877 33 NA GM NOT_NAMED 1877-10-26 21:00:00 TS 29.3000 -83.2000 40 hurdat_atl main 9 0 O_____________ hurdat_atl AL071877 29.3000 -83.2000 L TS 40 0 27 77
1877297N25266 1877 33 NA NA NOT_NAMED 1877-10-27 00:00:00 TS 29.6000 -81.9000 40 hurdat_atl main 0 0 O_____________ hurdat_atl AL071877 29.6000 -81.9000 TS 40 0 24 77
1877297N25266 1877 33 NA NA NOT_NAMED 1877-10-27 03:00:00 TS 29.8390 -80.4857 main 71 71 P_____________ AL071877 29.8390 -80.4857 TS 45 0 26 79
1877297N25266 1877 33 NA NA NOT_NAMED 1877-10-27 06:00:00 TS 30.1000 -79.0000 50 hurdat_atl main 214 214 O_____________ hurdat_atl AL071877 30.1000 -79.0000 TS 50 0 26 76
1877297N25266 1877 33 NA NA NOT_NAMED 1877-10-27 09:00:00 TS 30.4523 -77.5430 main 331 331 P_____________ AL071877 30.4523 -77.5430 TS 50 0 27 73
1877297N25266 1877 33 NA NA NOT_NAMED 1877-10-27 12:00:00 TS 30.9000 -76.0000 50 hurdat_atl main 383 383 O_____________ hurdat_atl AL071877 30.9000 -76.0000 TS 50 0 29 71
1877297N25266 1877 33 NA NA NOT_NAMED 1877-10-27 15:00:00 TS 31.3967 -74.2853 main 421 420 P_____________ AL071877 31.3967 -74.2853 TS 50 0 32 70
1877297N25266 1877 33 NA NA NOT_NAMED 1877-10-27 18:00:00 TS 32.0000 -72.5000 50 hurdat_atl main 477 477 O_____________ hurdat_atl AL071877 32.0000 -72.5000 TS 50 0 32 67
1877297N25266 1877 33 NA NA NOT_NAMED 1877-10-27 21:00:00 TS 32.6786 -70.7825 main 552 552 P_____________ AL071877 32.6786 -70.7825 TS 50 0 33 63
1877297N25266 1877 33 NA NA NOT_NAMED 1877-10-28 00:00:00 TS 33.5000 -69.0000 50 hurdat_atl main 646 646 O_____________ hurdat_atl AL071877 33.5000 -69.0000 TS 50 0 36 60
1877297N25266 1877 33 NA NA NOT_NAMED 1877-10-28 03:00:00 TS 34.4679 -67.0623 main 775 775 P_____________ AL071877 34.4679 -67.0623 TS 50 0 39 59
1877297N25266 1877 33 NA NA NOT_NAMED 1877-10-28 06:00:00 TS 35.5000 -65.0000 50 hurdat_atl main 814 O_____________ hurdat_atl AL071877 35.5000 -65.0000 TS 50 0 39 58

IBTrACS Databaseについて

本データベースは、米国NOAAが公開する1842年以降の世界の熱帯低気圧のベストトラックデータアーカイブInternational Best Track Archive for Climate Stewardship (IBTrACS)を、ウェブで閲覧しやすい形式に変換したものです。

最終更新日:2021-10-08